Gobles, Michigan
Current Conditions -  °F | °C
As of 11:35 PM on Sunday 25 Jan 2015 (Local Time) from KLWA Reporting Station
Clear Clear  
Wind Chill:   Ceiling: Unl
Heat Index: 19°   Visibility: 10mi
Dew Point: 11°   Wind: 8mph
Humidity: 72%   Direction: 60°ENE
Pressure: 29.99"   Gusts: NA
Location:  42.36°N, 85.88°W
Report Text: KLWA 260435Z AUTO 06007KT 10SM CLR M07/M12 A2999 RMK AO2 T10741117
Loading
Personal Weather Stations






























Interactive Weather Map New forecast layout! Learn more

10-Day Weather Forecast

Advertisements
Track Severe Weather on mobile